createdAt,value
2023-02-24T00:02:01.812Z,99.90
2023-02-24T00:04:31.961Z,99.90
2023-02-24T00:07:04.018Z,99.90
2023-02-24T00:09:33.992Z,99.90
2023-02-24T00:12:04.678Z,99.90
2023-02-24T00:14:35.925Z,99.90
2023-02-24T00:22:04.367Z,99.90
2023-02-24T00:24:33.111Z,99.90
2023-02-24T00:27:08.119Z,99.90
2023-02-24T00:32:08.319Z,99.90
2023-02-24T00:34:37.941Z,99.90
2023-02-24T00:37:08.515Z,99.90
2023-02-24T00:39:42.164Z,99.90
2023-02-24T00:44:42.834Z,99.90
2023-02-24T00:47:14.509Z,99.90
2023-02-24T00:49:43.788Z,99.90
2023-02-24T00:52:15.787Z,99.90
2023-02-24T00:57:20.971Z,99.90
2023-02-24T01:07:21.449Z,99.90
2023-02-24T01:09:56.235Z,99.90
2023-02-24T01:20:19.893Z,99.90
2023-02-24T01:22:53.491Z,99.90
2023-02-24T01:37:53.316Z,99.90
2023-02-24T01:42:51.732Z,99.90
2023-02-24T01:45:25.300Z,99.90
2023-02-24T01:47:56.038Z,99.90
2023-02-24T01:50:26.434Z,99.90
2023-02-24T01:52:59.197Z,99.90
2023-02-24T01:55:32.294Z,99.90
2023-02-24T01:58:01.426Z,99.90
2023-02-24T02:00:38.278Z,99.90
2023-02-24T02:03:32.192Z,99.90
2023-02-24T02:06:03.520Z,99.90
2023-02-24T02:08:40.597Z,99.90
2023-02-24T02:11:12.052Z,99.90
2023-02-24T02:13:43.997Z,99.90
2023-02-24T02:16:44.441Z,99.90
2023-02-24T02:19:56.078Z,99.90
2023-02-24T02:22:50.695Z,99.90
2023-02-24T02:25:28.578Z,99.90
2023-02-24T02:28:31.835Z,99.90
2023-02-24T02:31:26.377Z,99.90
2023-02-24T02:34:21.153Z,99.90
2023-02-24T02:36:59.381Z,99.90
2023-02-24T02:39:40.306Z,99.90
2023-02-24T02:42:18.268Z,99.90
2023-02-24T02:44:56.051Z,99.90
2023-02-24T02:47:28.889Z,99.90
2023-02-24T02:50:02.825Z,99.90
2023-02-24T02:52:36.351Z,99.90
2023-02-24T02:55:10.427Z,99.90
2023-02-24T02:57:47.194Z,99.90
2023-02-24T03:00:23.306Z,99.90
2023-02-24T03:02:56.288Z,99.90
2023-02-24T03:05:32.015Z,99.90
2023-02-24T03:08:04.786Z,99.90
2023-02-24T03:10:34.415Z,99.90
2023-02-24T03:13:07.184Z,99.90
2023-02-24T03:15:42.176Z,99.90
2023-02-24T03:18:16.469Z,99.90
2023-02-24T03:20:53.183Z,99.90
2023-02-24T03:23:27.480Z,99.90
2023-02-24T03:26:00.106Z,99.90
2023-02-24T03:28:35.841Z,99.90
2023-02-24T03:31:11.217Z,99.90
2023-02-24T03:33:44.991Z,99.90
2023-02-24T03:36:15.374Z,99.90
2023-02-24T03:38:50.460Z,99.90
2023-02-24T03:43:51.432Z,99.90
2023-02-24T03:46:20.142Z,99.90
2023-02-24T03:48:55.771Z,99.90
2023-02-24T03:51:25.667Z,99.90
2023-02-24T03:54:05.594Z,99.90
2023-02-24T03:56:47.203Z,99.90
2023-02-24T03:59:25.267Z,99.90
2023-02-24T04:01:59.419Z,99.90
2023-02-24T04:04:34.044Z,99.90
2023-02-24T04:07:09.894Z,99.90
2023-02-24T04:09:41.874Z,99.90
2023-02-24T04:12:19.848Z,99.90
2023-02-24T04:14:53.590Z,99.90
2023-02-24T04:17:27.543Z,99.90
2023-02-24T04:20:10.016Z,99.90
2023-02-24T04:22:42.077Z,99.90
2023-02-24T04:25:15.979Z,99.90
2023-02-24T04:27:45.678Z,99.90
2023-02-24T04:30:14.938Z,99.90
2023-02-24T04:32:44.648Z,99.90
2023-02-24T04:35:17.213Z,99.90
2023-02-24T04:37:47.176Z,99.90
2023-02-24T04:40:17.736Z,99.90
2023-02-24T04:42:50.286Z,99.90
2023-02-24T04:45:21.801Z,99.90
2023-02-24T04:47:51.329Z,99.90
2023-02-24T04:52:56.062Z,99.90
2023-02-24T04:55:29.924Z,99.90
2023-02-24T05:00:29.649Z,99.90
2023-02-24T05:02:59.364Z,99.90
2023-02-24T05:08:03.215Z,99.90
2023-02-24T05:10:36.391Z,99.90
2023-02-24T05:13:07.015Z,99.90
2023-02-24T05:18:08.048Z,99.90
2023-02-24T05:20:55.785Z,99.90
2023-02-24T05:23:27.952Z,99.90
2023-02-24T05:30:56.296Z,99.90
2023-02-24T05:40:57.961Z,99.90
2023-02-24T05:48:28.670Z,99.90
2023-02-24T05:55:56.131Z,99.90
2023-02-24T06:11:19.081Z,99.90
2023-02-24T06:16:18.669Z,99.90
2023-02-24T06:18:51.880Z,99.90
2023-02-24T06:21:21.296Z,99.90
2023-02-24T06:26:21.659Z,99.90
2023-02-24T06:38:46.562Z,99.90
2023-02-24T06:46:18.997Z,99.90
2023-02-24T06:51:18.814Z,99.90
2023-02-24T06:58:52.109Z,99.90
2023-02-24T07:01:25.763Z,99.90
2023-02-24T07:04:18.040Z,99.90
2023-02-24T07:06:51.995Z,99.90
2023-02-24T07:09:26.939Z,99.90
2023-02-24T07:12:08.022Z,99.90
2023-02-24T07:24:36.755Z,99.90
2023-02-24T07:27:06.960Z,99.90
2023-02-24T07:29:40.020Z,99.90
2023-02-24T07:32:10.467Z,99.90
2023-02-24T07:37:12.346Z,99.90
2023-02-24T07:39:43.035Z,99.90
2023-02-24T07:42:14.154Z,99.90
2023-02-24T07:44:48.672Z,99.90
2023-02-24T08:15:24.384Z,99.90
2023-02-24T08:17:56.239Z,99.90
2023-02-24T08:28:11.672Z,99.90
2023-02-24T08:30:46.503Z,99.90
2023-02-24T08:33:22.229Z,99.90
2023-02-24T08:35:58.287Z,99.90
2023-02-24T08:43:38.863Z,99.90
2023-02-24T08:46:21.571Z,99.90
2023-02-24T08:48:55.607Z,99.90
2023-02-24T08:51:28.882Z,99.90
2023-02-24T08:54:00.497Z,99.90
2023-02-24T08:56:31.089Z,99.90
2023-02-24T08:59:05.677Z,99.90
2023-02-24T09:01:37.782Z,99.90
2023-02-24T09:04:08.789Z,99.90
2023-02-24T09:06:43.959Z,99.90
2023-02-24T09:09:22.624Z,99.90
2023-02-24T09:11:56.171Z,99.90
2023-02-24T09:14:28.511Z,99.90
2023-02-24T09:17:11.665Z,99.90
2023-02-24T09:20:01.488Z,99.90
2023-02-24T09:22:40.850Z,99.90
2023-02-24T09:25:21.702Z,99.90
2023-02-24T09:27:56.317Z,99.90
2023-02-24T09:30:37.809Z,99.90
2023-02-24T09:33:21.259Z,99.90
2023-02-24T09:35:51.032Z,99.90
2023-02-24T09:38:43.079Z,99.90
2023-02-24T09:41:41.295Z,99.90
2023-02-24T09:44:18.361Z,99.90
2023-02-24T09:46:54.953Z,99.90
2023-02-24T09:49:40.828Z,98.90
2023-02-24T09:52:17.887Z,99.90
2023-02-24T09:55:05.967Z,99.90
2023-02-24T09:58:01.756Z,99.90
2023-02-24T10:00:33.664Z,99.90
2023-02-24T10:03:20.607Z,99.90
2023-02-24T10:06:12.426Z,99.90
2023-02-24T10:08:46.370Z,99.90
2023-02-24T10:11:16.730Z,99.90
2023-02-24T10:13:50.957Z,99.90
2023-02-24T10:16:24.936Z,99.90
2023-02-24T10:19:12.188Z,99.90
2023-02-24T10:22:00.574Z,99.90
2023-02-24T10:24:36.105Z,99.90
2023-02-24T10:27:17.456Z,99.90
2023-02-24T10:30:03.189Z,99.90
2023-02-24T10:32:43.554Z,99.90
2023-02-24T10:35:16.818Z,99.90
2023-02-24T10:37:49.415Z,99.90
2023-02-24T10:40:26.755Z,99.90
2023-02-24T10:43:10.436Z,99.90
2023-02-24T10:45:45.317Z,99.90
2023-02-24T10:48:40.223Z,99.90
2023-02-24T10:51:20.652Z,99.90
2023-02-24T10:54:10.976Z,99.90
2023-02-24T10:56:45.246Z,99.90
2023-02-24T10:59:33.226Z,99.90
2023-02-24T11:02:17.233Z,99.90
2023-02-24T11:07:44.192Z,99.90
2023-02-24T11:10:26.167Z,99.90
2023-02-24T11:13:13.918Z,99.90
2023-02-24T11:16:17.768Z,99.90
2023-02-24T11:18:50.219Z,99.90
2023-02-24T11:21:22.401Z,99.90
2023-02-24T11:23:54.020Z,99.90
2023-02-24T11:26:26.771Z,99.90
2023-02-24T11:29:06.603Z,99.90
2023-02-24T11:31:46.807Z,99.90
2023-02-24T11:34:24.421Z,99.90
2023-02-24T11:37:04.191Z,99.90
2023-02-24T11:39:53.765Z,99.90
2023-02-24T11:42:29.191Z,99.90
2023-02-24T11:45:04.311Z,99.90
2023-02-24T11:47:40.346Z,99.90
2023-02-24T11:50:24.749Z,99.90
2023-02-24T11:52:55.355Z,99.90
2023-02-24T11:55:32.751Z,99.90
2023-02-24T11:58:08.770Z,99.90
2023-02-24T12:00:42.494Z,99.90
2023-02-24T12:03:18.469Z,99.90
2023-02-24T12:05:53.813Z,99.90
2023-02-24T12:08:30.090Z,99.90
2023-02-24T12:11:08.839Z,99.90
2023-02-24T12:13:44.241Z,99.90
2023-02-24T12:16:17.025Z,99.90
2023-02-24T12:18:48.678Z,99.90
2023-02-24T12:21:22.977Z,99.90
2023-02-24T12:23:54.890Z,99.90
2023-02-24T12:26:27.372Z,99.90
2023-02-24T12:29:25.492Z,99.90
2023-02-24T12:32:00.896Z,99.90
2023-02-24T12:34:43.207Z,99.90
2023-02-24T12:37:41.050Z,99.90
2023-02-24T12:40:22.516Z,99.90
2023-02-24T12:42:58.802Z,99.90
2023-02-24T12:45:40.005Z,99.90
2023-02-24T12:48:19.462Z,99.90
2023-02-24T12:50:52.899Z,99.90
2023-02-24T12:53:28.269Z,99.90
2023-02-24T12:56:06.509Z,99.90
2023-02-24T12:58:38.044Z,99.90
2023-02-24T13:01:18.091Z,99.90
2023-02-24T13:04:11.368Z,99.90
2023-02-24T13:06:50.533Z,99.90
2023-02-24T13:09:25.852Z,99.90
2023-02-24T13:11:59.446Z,99.90
2023-02-24T13:14:31.954Z,99.90
2023-02-24T13:17:23.517Z,99.90
2023-02-24T13:19:55.851Z,99.90
2023-02-24T13:22:31.846Z,99.90
2023-02-24T13:25:11.268Z,99.90
2023-02-24T13:27:42.266Z,99.90
2023-02-24T13:30:30.962Z,99.90
2023-02-24T13:33:06.672Z,99.90
2023-02-24T13:35:37.827Z,99.90
2023-02-24T13:38:24.049Z,99.90
2023-02-24T13:40:52.959Z,99.90
2023-02-24T13:43:28.436Z,99.90
2023-02-24T13:46:01.377Z,99.90
2023-02-24T13:48:51.860Z,99.90
2023-02-24T13:51:56.337Z,99.90
2023-02-24T13:54:59.858Z,99.90
2023-02-24T13:57:57.859Z,99.90
2023-02-24T14:00:35.110Z,99.90
2023-02-24T14:03:12.600Z,99.90
2023-02-24T14:05:43.494Z,99.90
2023-02-24T14:08:26.557Z,99.90
2023-02-24T14:11:04.203Z,99.90
2023-02-24T14:13:34.372Z,99.90
2023-02-24T14:16:07.583Z,99.90
2023-02-24T14:21:07.761Z,99.90
2023-02-24T14:23:37.942Z,99.90
2023-02-24T14:26:09.348Z,99.90
2023-02-24T14:28:41.815Z,99.90
2023-02-24T14:31:13.694Z,99.90
2023-02-24T14:33:44.130Z,99.90
2023-02-24T14:36:21.900Z,99.90
2023-02-24T14:39:04.324Z,99.90
2023-02-24T14:44:13.128Z,99.90
2023-02-24T14:46:49.204Z,99.90
2023-02-24T14:49:25.537Z,99.90
2023-02-24T14:51:58.193Z,99.90
2023-02-24T14:54:46.304Z,99.90
2023-02-24T14:57:19.626Z,99.90
2023-02-24T14:59:52.424Z,99.90
2023-02-24T15:02:26.375Z,99.90
2023-02-24T15:04:58.095Z,99.90
2023-02-24T15:07:30.172Z,99.90
2023-02-24T15:10:00.756Z,99.90
2023-02-24T15:12:32.731Z,99.90
2023-02-24T15:15:04.550Z,99.90
2023-02-24T15:17:34.459Z,99.90
2023-02-24T15:25:24.098Z,99.90
2023-02-24T15:27:59.598Z,99.90
2023-02-24T15:30:31.439Z,99.90
2023-02-24T15:33:09.278Z,99.90
2023-02-24T15:35:47.448Z,99.90
2023-02-24T15:38:23.247Z,99.90
2023-02-24T15:40:55.964Z,99.90
2023-02-24T15:43:33.951Z,99.90
2023-02-24T15:51:08.607Z,99.90
2023-02-24T15:56:07.191Z,99.90
2023-02-24T15:58:36.242Z,99.90
2023-02-24T16:06:07.564Z,99.90
2023-02-24T16:11:15.380Z,99.90
2023-02-24T16:13:50.154Z,99.90
2023-02-24T16:21:20.473Z,99.90
2023-02-24T16:26:23.740Z,99.90
2023-02-24T16:28:55.927Z,99.90
2023-02-24T16:31:25.875Z,99.90
2023-02-24T16:41:28.264Z,99.90
2023-02-24T16:48:57.702Z,99.90
2023-02-24T16:58:53.744Z,99.90
2023-02-24T17:01:23.166Z,99.90
2023-02-24T17:03:53.833Z,99.90
2023-02-24T17:11:23.443Z,99.90
2023-02-24T17:13:53.456Z,99.90
2023-02-24T17:16:23.134Z,99.90
2023-02-24T17:31:21.174Z,99.90
2023-02-24T17:41:19.388Z,99.90
2023-02-24T17:48:47.773Z,99.90
2023-02-24T18:01:12.556Z,99.90
2023-02-24T18:08:43.776Z,99.90
2023-02-24T18:11:16.096Z,99.90
2023-02-24T18:13:44.660Z,99.90
2023-02-24T18:16:16.569Z,99.90
2023-02-24T18:21:17.142Z,99.90
2023-02-24T18:31:15.511Z,99.90
2023-02-24T18:38:44.335Z,99.90
2023-02-24T18:41:15.719Z,99.90
2023-02-24T18:46:15.528Z,99.90
2023-02-24T18:48:46.087Z,99.90
2023-02-24T18:51:17.241Z,99.90
2023-02-24T18:53:47.058Z,99.90
2023-02-24T18:56:18.674Z,99.90
2023-02-24T19:01:17.612Z,99.90
2023-02-24T19:03:50.825Z,99.90
2023-02-24T19:06:21.664Z,99.90
2023-02-24T19:08:56.817Z,99.90
2023-02-24T19:16:23.895Z,99.90
2023-02-24T19:23:54.288Z,99.90
2023-02-24T19:26:24.417Z,99.90
2023-02-24T19:28:53.614Z,99.90
2023-02-24T19:31:30.351Z,99.90
2023-02-24T19:34:01.049Z,99.90
2023-02-24T19:38:59.407Z,99.90
2023-02-24T19:46:29.175Z,96.30
2023-02-24T19:48:58.283Z,99.90
2023-02-24T19:51:31.177Z,99.90
2023-02-24T19:54:03.564Z,99.90
2023-02-24T19:56:35.405Z,99.90
2023-02-24T19:59:05.670Z,99.90
2023-02-24T20:04:05.883Z,99.90
2023-02-24T20:06:36.899Z,99.90
2023-02-24T20:09:08.932Z,99.90
2023-02-24T20:19:11.512Z,99.90
2023-02-24T20:21:40.523Z,99.90
2023-02-24T20:24:13.791Z,99.90
2023-02-24T20:26:46.252Z,99.90
2023-02-24T20:39:15.220Z,99.90
2023-02-24T20:44:12.924Z,99.90
2023-02-24T20:49:12.939Z,99.90
2023-02-24T20:54:16.574Z,99.90
2023-02-24T20:56:46.314Z,99.90
2023-02-24T20:59:19.068Z,99.90
2023-02-24T21:01:48.866Z,99.90
2023-02-24T21:04:18.290Z,99.90
2023-02-24T21:06:48.139Z,99.90
2023-02-24T21:09:17.824Z,99.90
2023-02-24T21:14:16.961Z,99.90
2023-02-24T21:21:50.978Z,99.90
2023-02-24T21:24:21.089Z,99.90
2023-02-24T21:34:18.790Z,99.90
2023-02-24T21:41:46.675Z,99.90
2023-02-24T21:44:16.625Z,99.90
2023-02-24T21:54:14.700Z,99.90
2023-02-24T21:59:14.798Z,99.90
2023-02-24T22:01:45.008Z,99.90
2023-02-24T22:04:18.933Z,99.90
2023-02-24T22:09:20.861Z,99.90
2023-02-24T22:11:51.358Z,99.90
2023-02-24T22:14:21.330Z,99.90
2023-02-24T22:16:49.885Z,99.90
2023-02-24T22:24:19.371Z,99.90
2023-02-24T22:26:51.457Z,99.90
2023-02-24T22:29:22.271Z,99.90
2023-02-24T22:46:49.527Z,99.90
2023-02-24T22:51:48.313Z,99.90
2023-02-24T23:01:45.349Z,99.90
2023-02-24T23:04:18.694Z,99.90
2023-02-24T23:16:48.352Z,99.90
2023-02-24T23:19:19.221Z,85.50
2023-02-24T23:21:49.744Z,63.30
2023-02-24T23:24:19.526Z,83.40
2023-02-24T23:26:51.303Z,62.60
2023-02-24T23:29:23.707Z,56.40
2023-02-24T23:34:23.962Z,69.30
2023-02-24T23:39:23.976Z,47.20
2023-02-24T23:47:01.719Z,59.00
2023-02-24T23:49:46.360Z,82.60
2023-02-24T23:54:53.022Z,84.50
